Time;durP1;ratioP1;P1;durP2;ratioP2;P2;SDS_P1;SDS_P2;PMS_P1;PMS_P2;Temp;Humidity;BMP_temperature;BMP_pressure;BME280_temperature;BME280_humidity;BME280_pressure;Samples;Min_cycle;Max_cycle;Signal;HPM_P1;HPM_P2
2023/08/16 00:01:31;;;;;;;5.37;3.83;;;;;;;;;;5025921;28;20486;-67
2023/08/16 00:03:58;;;;;;;3.70;3.30;;;;;;;;;;5025407;28;20510;-66
2023/08/16 00:06:26;;;;;;;15.48;13.63;;;;;;;;;;5025179;28;20434;-66
2023/08/16 00:08:58;;;;;;;3.58;3.28;;;;;;;;;;5027180;28;20433;-66
2023/08/16 00:11:27;;;;;;;6.50;3.70;;;;;;;;;;5027219;28;20466;-66
2023/08/16 00:13:56;;;;;;;4.90;3.47;;;;;;;;;;5029718;28;20429;-66
2023/08/16 00:16:24;;;;;;;3.55;3.25;;;;;;;;;;5026521;28;21432;-66
2023/08/16 00:18:51;;;;;;;5.57;3.50;;;;;;;;;;5024391;28;20437;-67
2023/08/16 00:21:18;;;;;;;5.10;3.72;;;;;;;;;;5024967;28;20433;-66
2023/08/16 00:23:45;;;;;;;4.75;4.20;;;;;;;;;;5026527;28;20441;-66
2023/08/16 00:26:12;;;;;;;5.70;4.30;;;;;;;;;;5023052;28;20432;-67
2023/08/16 00:28:40;;;;;;;6.82;5.20;;;;;;;;;;5026704;28;20489;-67
2023/08/16 00:31:10;;;;;;;5.88;4.53;;;;;;;;;;5024472;28;20437;-67
2023/08/16 00:33:37;;;;;;;23.48;21.67;;;;;;;;;;5019516;28;20517;-67
2023/08/16 00:36:04;;;;;;;12.25;11.43;;;;;;;;;;5028141;28;20433;-67
2023/08/16 00:38:34;;;;;;;6.07;3.93;;;;;;;;;;5026204;28;20533;-67
2023/08/16 00:41:01;;;;;;;5.88;5.38;;;;;;;;;;5025305;28;20429;-67
2023/08/16 00:43:29;;;;;;;4.82;3.80;;;;;;;;;;5024520;28;20550;-67
2023/08/16 00:45:56;;;;;;;48.53;45.53;;;;;;;;;;5024282;28;21468;-67
2023/08/16 00:48:23;;;;;;;7.85;4.80;;;;;;;;;;5026250;28;20436;-67
2023/08/16 00:50:50;;;;;;;13.88;5.28;;;;;;;;;;5025841;28;20437;-67
2023/08/16 00:53:18;;;;;;;19.45;5.97;;;;;;;;;;5026092;28;20437;-67
2023/08/16 00:55:46;;;;;;;39.85;6.65;;;;;;;;;;5024049;28;20443;-67
2023/08/16 00:58:14;;;;;;;44.15;6.88;;;;;;;;;;5022018;28;20423;-67
2023/08/16 01:07:32;;;;;;;22.90;7.85;;;;;;;;;;5027778;28;20394;-67
2023/08/16 01:10:00;;;;;;;21.63;8.60;;;;;;;;;;5028956;28;20922;-67
2023/08/16 01:12:29;;;;;;;34.75;11.18;;;;;;;;;;5024197;28;20433;-67
2023/08/16 01:15:03;;;;;;;33.97;21.10;;;;;;;;;;5024491;28;20564;-67
2023/08/16 01:17:31;;;;;;;37.47;9.18;;;;;;;;;;5023421;28;20429;-67
2023/08/16 01:19:59;;;;;;;26.35;6.93;;;;;;;;;;5029378;28;20429;-67
2023/08/16 01:22:26;;;;;;;23.98;7.50;;;;;;;;;;5029160;28;20427;-67
2023/08/16 01:25:08;;;;;;;30.88;7.30;;;;;;;;;;5023741;28;20425;-67
2023/08/16 01:27:35;;;;;;;33.37;7.10;;;;;;;;;;5028733;28;20848;-67
2023/08/16 01:30:04;;;;;;;16.60;6.50;;;;;;;;;;5028114;28;20440;-67
2023/08/16 01:32:32;;;;;;;30.50;6.85;;;;;;;;;;5024741;28;21118;-67
2023/08/16 01:35:02;;;;;;;34.13;8.00;;;;;;;;;;5026889;28;20799;-67
2023/08/16 01:37:30;;;;;;;33.42;20.90;;;;;;;;;;5026368;28;20483;-67
2023/08/16 01:40:01;;;;;;;20.67;6.38;;;;;;;;;;5025976;28;20442;-67
2023/08/16 01:42:34;;;;;;;27.15;7.43;;;;;;;;;;5027286;28;20428;-67
2023/08/16 01:45:04;;;;;;;26.48;12.88;;;;;;;;;;5026108;28;20435;-67
2023/08/16 01:47:32;;;;;;;134.70;122.67;;;;;;;;;;5023897;28;20434;-67
2023/08/16 01:49:59;;;;;;;163.30;148.63;;;;;;;;;;5023774;28;20444;-67
2023/08/16 01:52:29;;;;;;;83.77;76.07;;;;;;;;;;5023645;28;20439;-67
2023/08/16 01:54:56;;;;;;;94.65;85.15;;;;;;;;;;5026342;28;20448;-67
2023/08/16 01:57:23;;;;;;;231.77;210.25;;;;;;;;;;5025922;28;20518;-67
2023/08/16 01:59:51;;;;;;;230.35;210.13;;;;;;;;;;5024153;28;20492;-67
2023/08/16 02:02:18;;;;;;;46.33;37.00;;;;;;;;;;5023028;28;20558;-67
2023/08/16 02:04:45;;;;;;;487.40;443.40;;;;;;;;;;5024519;28;20440;-67
2023/08/16 02:07:15;;;;;;;193.70;178.55;;;;;;;;;;5017171;28;20441;-67
2023/08/16 02:09:43;;;;;;;36.17;25.15;;;;;;;;;;5028752;28;20467;-67
2023/08/16 02:12:10;;;;;;;17.70;7.20;;;;;;;;;;5027422;28;20430;-67
2023/08/16 02:14:37;;;;;;;23.10;10.00;;;;;;;;;;5023944;28;24024;-67
2023/08/16 02:17:04;;;;;;;49.28;44.17;;;;;;;;;;5024944;28;20440;-67
2023/08/16 02:19:31;;;;;;;21.98;19.75;;;;;;;;;;5026390;28;20503;-67
2023/08/16 02:21:58;;;;;;;229.75;206.60;;;;;;;;;;5027078;28;20429;-67
2023/08/16 02:24:26;;;;;;;414.17;378.95;;;;;;;;;;5025508;28;21025;-67
2023/08/16 02:26:53;;;;;;;103.68;94.60;;;;;;;;;;5026004;28;20516;-67
2023/08/16 02:29:20;;;;;;;481.25;442.02;;;;;;;;;;5024617;28;20452;-67
2023/08/16 02:31:47;;;;;;;311.33;285.75;;;;;;;;;;5027940;28;20429;-67
2023/08/16 02:34:14;;;;;;;613.38;513.30;;;;;;;;;;5028106;28;20461;-67
2023/08/16 02:36:41;;;;;;;585.85;529.67;;;;;;;;;;5027180;28;20439;-67
2023/08/16 02:39:08;;;;;;;329.50;299.48;;;;;;;;;;5030428;28;20508;-67
2023/08/16 02:41:36;;;;;;;16.88;7.60;;;;;;;;;;5031756;28;20490;-67
2023/08/16 02:44:03;;;;;;;27.13;20.63;;;;;;;;;;5027358;28;20438;-66
2023/08/16 02:46:32;;;;;;;59.55;53.17;;;;;;;;;;5024638;28;20431;-67
2023/08/16 02:49:00;;;;;;;15.95;6.47;;;;;;;;;;5025445;28;20437;-67
2023/08/16 02:51:27;;;;;;;15.85;5.95;;;;;;;;;;5025574;28;20434;-67
2023/08/16 02:53:54;;;;;;;14.25;6.25;;;;;;;;;;5029150;28;20469;-67
2023/08/16 02:56:21;;;;;;;12.55;7.70;;;;;;;;;;5026631;28;20434;-67
2023/08/16 02:58:48;;;;;;;12.02;8.48;;;;;;;;;;5027245;28;20541;-67
2023/08/16 03:01:15;;;;;;;23.73;21.73;;;;;;;;;;5026025;28;20437;-67
2023/08/16 03:03:42;;;;;;;11.37;6.30;;;;;;;;;;5026042;28;20433;-67
2023/08/16 03:06:09;;;;;;;10.15;5.60;;;;;;;;;;5026105;28;20425;-67
2023/08/16 03:08:37;;;;;;;9.45;5.22;;;;;;;;;;5028891;28;20443;-67
2023/08/16 03:11:04;;;;;;;7.18;4.95;;;;;;;;;;5029209;28;20433;-67
2023/08/16 03:13:31;;;;;;;12.68;5.50;;;;;;;;;;5027577;28;20537;-67
2023/08/16 03:15:58;;;;;;;10.80;5.70;;;;;;;;;;5029621;28;20522;-67
2023/08/16 03:18:28;;;;;;;10.68;5.20;;;;;;;;;;5026610;28;20433;-67
2023/08/16 03:20:58;;;;;;;10.77;5.10;;;;;;;;;;5030166;28;20456;-68
2023/08/16 03:23:26;;;;;;;16.20;6.40;;;;;;;;;;5027853;28;20439;-67
2023/08/16 03:25:53;;;;;;;14.23;5.40;;;;;;;;;;5029351;28;20527;-67
2023/08/16 03:28:20;;;;;;;10.43;5.70;;;;;;;;;;5026372;28;20433;-67
2023/08/16 03:30:47;;;;;;;12.15;5.80;;;;;;;;;;5024801;28;20562;-67
2023/08/16 03:33:16;;;;;;;10.43;4.75;;;;;;;;;;5025196;28;20436;-68
2023/08/16 03:35:44;;;;;;;4.97;4.47;;;;;;;;;;5027912;28;20455;-67
2023/08/16 03:38:11;;;;;;;8.07;4.40;;;;;;;;;;5027162;28;20548;-67
2023/08/16 03:40:38;;;;;;;84.03;77.20;;;;;;;;;;5027687;28;20437;-67
2023/08/16 03:43:08;;;;;;;178.40;165.30;;;;;;;;;;5026340;28;20462;-67
2023/08/16 03:45:36;;;;;;;33.75;30.73;;;;;;;;;;5026876;28;20452;-67
2023/08/16 03:48:04;;;;;;;6.82;4.78;;;;;;;;;;5029376;28;20437;-68
2023/08/16 03:50:31;;;;;;;9.63;5.72;;;;;;;;;;5027610;28;21814;-67
2023/08/16 03:52:58;;;;;;;8.88;5.55;;;;;;;;;;5025844;28;20508;-67
2023/08/16 03:55:25;;;;;;;6.95;5.03;;;;;;;;;;5023893;28;20449;-67
2023/08/16 03:57:53;;;;;;;5.83;4.37;;;;;;;;;;5028614;28;20918;-67
2023/08/16 04:00:20;;;;;;;9.40;8.50;;;;;;;;;;5027902;28;20438;-67
2023/08/16 04:02:50;;;;;;;7.47;5.10;;;;;;;;;;5028045;28;20575;-68
2023/08/16 04:05:21;;;;;;;10.88;5.38;;;;;;;;;;5030294;28;20487;-67
2023/08/16 04:07:48;;;;;;;5.32;4.60;;;;;;;;;;5019646;28;22547;-67
2023/08/16 04:10:15;;;;;;;10.60;7.65;;;;;;;;;;5024647;28;20431;-67
2023/08/16 04:12:42;;;;;;;9.27;5.25;;;;;;;;;;5025350;28;20428;-68
2023/08/16 04:15:10;;;;;;;188.70;174.38;;;;;;;;;;5026334;28;20532;-68
2023/08/16 04:17:38;;;;;;;181.10;168.00;;;;;;;;;;5024854;28;20441;-68
2023/08/16 04:20:08;;;;;;;15.13;11.57;;;;;;;;;;5022039;28;20444;-68
2023/08/16 04:22:35;;;;;;;132.30;121.07;;;;;;;;;;5025325;28;20494;-68
2023/08/16 04:25:03;;;;;;;195.68;174.45;;;;;;;;;;5027704;28;20606;-68
2023/08/16 04:27:30;;;;;;;201.60;175.07;;;;;;;;;;5025743;28;20457;-67
2023/08/16 04:29:58;;;;;;;89.17;41.47;;;;;;;;;;5026618;28;20935;-67
2023/08/16 04:32:25;;;;;;;110.27;53.00;;;;;;;;;;5025806;28;20847;-68
2023/08/16 04:34:52;;;;;;;74.23;10.60;;;;;;;;;;5026582;28;20437;-67
2023/08/16 04:37:19;;;;;;;49.83;7.03;;;;;;;;;;5029232;28;21132;-67
2023/08/16 04:39:48;;;;;;;71.60;7.28;;;;;;;;;;5027201;28;20532;-68
2023/08/16 04:42:15;;;;;;;218.35;196.23;;;;;;;;;;5027206;28;20543;-68
2023/08/16 04:44:45;;;;;;;23.13;5.70;;;;;;;;;;5024935;28;20482;-67
2023/08/16 04:47:12;;;;;;;24.55;5.78;;;;;;;;;;5026140;28;20866;-67
2023/08/16 04:49:39;;;;;;;115.30;104.88;;;;;;;;;;5037211;28;20539;-67
2023/08/16 04:52:06;;;;;;;38.03;21.80;;;;;;;;;;5040431;28;20452;-68
2023/08/16 04:54:34;;;;;;;116.13;107.55;;;;;;;;;;5026708;28;20449;-67
2023/08/16 04:57:02;;;;;;;24.13;6.47;;;;;;;;;;5029508;28;21135;-68
2023/08/16 04:59:29;;;;;;;60.90;54.92;;;;;;;;;;5027969;28;20543;-68
2023/08/16 05:01:57;;;;;;;22.63;7.53;;;;;;;;;;5027598;28;20468;-68
2023/08/16 05:04:24;;;;;;;17.83;12.10;;;;;;;;;;5026432;28;21119;-68
2023/08/16 05:06:51;;;;;;;50.20;43.83;;;;;;;;;;5026700;28;20488;-68
2023/08/16 05:09:22;;;;;;;24.38;11.60;;;;;;;;;;5028149;28;20463;-68
2023/08/16 05:11:49;;;;;;;22.27;7.90;;;;;;;;;;5028728;28;20805;-68
2023/08/16 05:14:16;;;;;;;22.17;7.22;;;;;;;;;;5026661;28;20443;-68
2023/08/16 05:16:43;;;;;;;14.70;7.60;;;;;;;;;;5030707;28;20438;-68
2023/08/16 05:19:13;;;;;;;19.15;7.70;;;;;;;;;;5027360;28;20516;-68
2023/08/16 05:21:40;;;;;;;26.88;7.22;;;;;;;;;;5024039;28;20643;-68
2023/08/16 05:24:10;;;;;;;32.10;8.63;;;;;;;;;;5024293;28;20599;-68
2023/08/16 05:26:37;;;;;;;18.67;7.70;;;;;;;;;;5027523;28;20458;-68
2023/08/16 05:29:04;;;;;;;24.25;8.95;;;;;;;;;;5024587;28;20430;-68
2023/08/16 05:31:31;;;;;;;18.33;8.98;;;;;;;;;;5026258;28;20542;-68
2023/08/16 05:33:58;;;;;;;23.63;12.88;;;;;;;;;;5016037;28;20543;-69
2023/08/16 05:36:28;;;;;;;20.15;8.50;;;;;;;;;;5025800;28;20789;-68
2023/08/16 05:38:55;;;;;;;538.75;493.65;;;;;;;;;;5025077;28;20499;-68
2023/08/16 05:41:22;;;;;;;96.60;88.72;;;;;;;;;;5022569;28;20520;-68
2023/08/16 05:43:50;;;;;;;26.17;17.67;;;;;;;;;;5019688;28;20486;-68
2023/08/16 05:46:17;;;;;;;25.35;12.13;;;;;;;;;;5020123;28;20429;-68
2023/08/16 05:48:45;;;;;;;506.40;463.42;;;;;;;;;;5027357;28;20430;-68
2023/08/16 05:51:12;;;;;;;489.80;449.40;;;;;;;;;;5041292;28;20431;-68
2023/08/16 05:53:39;;;;;;;598.73;548.23;;;;;;;;;;5037867;28;20428;-68
2023/08/16 05:56:06;;;;;;;242.00;222.67;;;;;;;;;;5023680;28;20442;-68
2023/08/16 05:58:33;;;;;;;26.73;21.27;;;;;;;;;;5027443;28;20437;-68
2023/08/16 06:01:00;;;;;;;74.40;68.55;;;;;;;;;;5026666;28;20449;-69
2023/08/16 06:03:28;;;;;;;132.07;121.70;;;;;;;;;;5023808;28;20552;-68
2023/08/16 06:05:56;;;;;;;90.15;83.07;;;;;;;;;;5024901;28;20442;-68
2023/08/16 06:08:23;;;;;;;88.05;80.63;;;;;;;;;;5028143;28;20435;-69
2023/08/16 06:10:51;;;;;;;186.20;170.97;;;;;;;;;;5027585;28;20557;-69
2023/08/16 06:13:18;;;;;;;405.52;371.00;;;;;;;;;;5028981;28;21227;-70
2023/08/16 06:15:45;;;;;;;93.50;84.47;;;;;;;;;;5030637;28;21098;-68
2023/08/16 06:18:13;;;;;;;335.27;307.20;;;;;;;;;;5025842;28;20536;-68
2023/08/16 06:20:41;;;;;;;453.95;415.38;;;;;;;;;;5025390;28;20495;-68
2023/08/16 06:23:09;;;;;;;489.35;446.73;;;;;;;;;;5019363;28;20482;-68
2023/08/16 06:25:36;;;;;;;289.70;264.67;;;;;;;;;;5023895;28;20436;-69
2023/08/16 06:28:03;;;;;;;45.08;26.60;;;;;;;;;;5027628;28;20516;-69
2023/08/16 06:30:31;;;;;;;41.65;12.93;;;;;;;;;;5026464;28;21330;-68
2023/08/16 06:32:58;;;;;;;38.65;12.77;;;;;;;;;;5024359;28;20545;-68
2023/08/16 06:35:25;;;;;;;41.40;12.30;;;;;;;;;;5030529;28;20429;-68
2023/08/16 06:37:52;;;;;;;42.75;13.45;;;;;;;;;;5027215;28;20468;-67
2023/08/16 06:40:19;;;;;;;33.15;12.15;;;;;;;;;;5025124;28;20544;-68
2023/08/16 06:42:46;;;;;;;31.48;12.25;;;;;;;;;;5027051;28;20459;-68
2023/08/16 06:45:14;;;;;;;34.25;11.18;;;;;;;;;;5028997;28;20432;-68
2023/08/16 06:47:42;;;;;;;51.53;40.72;;;;;;;;;;5031182;28;20522;-68
2023/08/16 06:50:10;;;;;;;46.85;39.85;;;;;;;;;;5028646;28;20510;-68
2023/08/16 06:52:37;;;;;;;34.33;17.17;;;;;;;;;;5029185;28;21085;-68
2023/08/16 06:55:05;;;;;;;28.80;11.40;;;;;;;;;;5025748;28;20528;-68
2023/08/16 06:57:33;;;;;;;31.75;13.02;;;;;;;;;;5028456;28;20448;-68
2023/08/16 07:00:00;;;;;;;30.67;13.30;;;;;;;;;;5026682;28;20456;-69
2023/08/16 07:02:27;;;;;;;32.43;13.67;;;;;;;;;;5029349;28;20447;-68
2023/08/16 07:04:57;;;;;;;69.77;62.57;;;;;;;;;;5029629;28;20433;-68
2023/08/16 07:07:24;;;;;;;24.58;10.50;;;;;;;;;;5027775;28;20426;-69
2023/08/16 07:09:51;;;;;;;770.92;706.78;;;;;;;;;;5030673;28;20516;-68
2023/08/16 07:12:19;;;;;;;711.38;642.80;;;;;;;;;;5027439;28;20445;-69
2023/08/16 07:14:48;;;;;;;193.02;177.80;;;;;;;;;;5029708;28;20521;-68
2023/08/16 07:17:15;;;;;;;69.38;63.80;;;;;;;;;;5028371;28;21041;-68
2023/08/16 07:19:43;;;;;;;450.08;409.73;;;;;;;;;;5026652;28;20472;-68
2023/08/16 07:22:10;;;;;;;484.17;441.27;;;;;;;;;;5030210;28;21685;-68
2023/08/16 07:24:37;;;;;;;539.70;487.48;;;;;;;;;;5030749;28;20435;-68
2023/08/16 07:27:04;;;;;;;403.58;364.83;;;;;;;;;;5029578;28;20461;-68
2023/08/16 07:29:34;;;;;;;285.10;259.43;;;;;;;;;;5027193;28;20425;-68
2023/08/16 07:32:01;;;;;;;26.00;16.00;;;;;;;;;;5025293;28;20433;-69
2023/08/16 07:34:29;;;;;;;481.70;435.40;;;;;;;;;;5033369;28;20429;-68
2023/08/16 07:36:56;;;;;;;886.25;792.40;;;;;;;;;;5030483;28;20436;-68
2023/08/16 07:39:24;;;;;;;642.58;587.40;;;;;;;;;;5028898;28;20518;-68
2023/08/16 07:41:53;;;;;;;888.90;806.25;;;;;;;;;;5031509;28;20533;-68
2023/08/16 07:44:20;;;;;;;647.80;592.17;;;;;;;;;;5030289;28;20524;-68
2023/08/16 07:46:49;;;;;;;220.52;202.18;;;;;;;;;;5028614;28;21110;-68
2023/08/16 07:49:16;;;;;;;925.15;841.80;;;;;;;;;;5027463;28;20439;-68
2023/08/16 07:51:47;;;;;;;901.17;812.77;;;;;;;;;;5030787;28;20961;-68
2023/08/16 07:54:14;;;;;;;368.77;336.27;;;;;;;;;;5028576;28;20465;-68
2023/08/16 07:56:41;;;;;;;796.35;723.10;;;;;;;;;;5027352;28;20438;-68
2023/08/16 07:59:08;;;;;;;588.03;535.00;;;;;;;;;;5027962;28;20576;-69
2023/08/16 08:01:37;;;;;;;21.65;10.55;;;;;;;;;;5021340;28;20433;-69
2023/08/16 08:04:04;;;;;;;21.67;10.37;;;;;;;;;;5025145;28;21190;-69
2023/08/16 08:06:31;;;;;;;19.83;9.55;;;;;;;;;;5028940;28;20532;-69
2023/08/16 08:08:59;;;;;;;17.33;9.65;;;;;;;;;;5028334;28;20992;-68
2023/08/16 08:11:26;;;;;;;76.93;69.13;;;;;;;;;;5027219;28;20865;-68
2023/08/16 08:13:57;;;;;;;263.33;239.02;;;;;;;;;;5024953;28;20443;-69
2023/08/16 08:16:25;;;;;;;17.10;9.18;;;;;;;;;;5027564;28;20433;-69
2023/08/16 08:18:52;;;;;;;29.92;25.77;;;;;;;;;;5029367;28;20442;-69
2023/08/16 08:21:19;;;;;;;76.25;69.72;;;;;;;;;;5027906;28;20429;-69
2023/08/16 08:23:47;;;;;;;20.48;13.77;;;;;;;;;;5024029;28;20529;-69
2023/08/16 08:26:14;;;;;;;365.95;332.50;;;;;;;;;;5014680;28;20439;-69
2023/08/16 08:28:41;;;;;;;22.75;19.73;;;;;;;;;;5025815;28;20429;-69
2023/08/16 08:31:08;;;;;;;241.48;218.68;;;;;;;;;;5025233;28;20453;-69
2023/08/16 08:33:35;;;;;;;605.88;547.58;;;;;;;;;;5028536;28;20461;-69
2023/08/16 08:36:03;;;;;;;14.48;7.85;;;;;;;;;;5027391;28;21174;-69
2023/08/16 08:38:30;;;;;;;499.00;454.58;;;;;;;;;;5030286;28;20452;-69
2023/08/16 08:40:58;;;;;;;174.60;157.98;;;;;;;;;;5026139;28;20490;-70
2023/08/16 08:43:28;;;;;;;36.08;32.72;;;;;;;;;;5025591;28;20530;-69
2023/08/16 08:46:00;;;;;;;585.20;530.53;;;;;;;;;;5025089;28;20441;-69
2023/08/16 08:48:28;;;;;;;593.70;541.38;;;;;;;;;;5024858;28;20440;-69
2023/08/16 08:50:55;;;;;;;70.70;64.30;;;;;;;;;;5029031;28;21002;-70
2023/08/16 08:53:22;;;;;;;68.97;63.27;;;;;;;;;;5029176;28;20433;-70
2023/08/16 08:55:52;;;;;;;39.45;35.75;;;;;;;;;;5027111;28;20439;-71
2023/08/16 08:58:23;;;;;;;266.63;243.27;;;;;;;;;;5028278;28;20563;-70
2023/08/16 09:00:50;;;;;;;682.67;622.33;;;;;;;;;;5027420;28;20468;-70
2023/08/16 09:03:18;;;;;;;138.52;126.10;;;;;;;;;;5030680;28;20448;-69
2023/08/16 09:05:49;;;;;;;18.90;16.80;;;;;;;;;;5025061;28;20434;-69
2023/08/16 09:08:16;;;;;;;270.00;247.77;;;;;;;;;;5027711;28;20811;-69
2023/08/16 09:10:44;;;;;;;10.02;7.70;;;;;;;;;;5028581;28;21079;-69
2023/08/16 09:13:12;;;;;;;758.78;692.90;;;;;;;;;;5025465;28;20511;-70
2023/08/16 09:15:42;;;;;;;296.90;270.58;;;;;;;;;;5028253;28;20444;-71
2023/08/16 09:18:11;;;;;;;673.28;616.13;;;;;;;;;;5025410;28;20429;-69
2023/08/16 09:20:38;;;;;;;465.75;423.48;;;;;;;;;;5029527;28;20474;-71
2023/08/16 09:23:07;;;;;;;57.95;53.67;;;;;;;;;;5029438;28;21372;-70
2023/08/16 09:25:34;;;;;;;122.55;112.85;;;;;;;;;;5026250;28;20594;-70
2023/08/16 09:28:01;;;;;;;453.17;414.88;;;;;;;;;;5046007;28;20512;-73
2023/08/16 09:30:29;;;;;;;17.63;15.88;;;;;;;;;;5025738;28;20442;-72
2023/08/16 09:32:56;;;;;;;161.15;148.00;;;;;;;;;;5022609;28;20431;-73
2023/08/16 09:35:33;;;;;;;94.93;86.07;;;;;;;;;;5027495;28;20440;-67
2023/08/16 09:38:01;;;;;;;636.75;582.13;;;;;;;;;;5027970;28;20445;-68
2023/08/16 09:40:48;;;;;;;1119.03;999.90;;;;;;;;;;5032755;28;20451;-68
2023/08/16 09:43:15;;;;;;;742.57;678.00;;;;;;;;;;5033763;28;20893;-68
2023/08/16 09:45:43;;;;;;;57.55;53.28;;;;;;;;;;5028603;28;20434;-69
2023/08/16 09:48:10;;;;;;;4.80;4.15;;;;;;;;;;5032048;28;20428;-69
2023/08/16 09:50:38;;;;;;;7.27;4.40;;;;;;;;;;5032199;28;20435;-67
2023/08/16 09:53:19;;;;;;;5.35;4.05;;;;;;;;;;5031599;28;21095;-67
2023/08/16 09:56:02;;;;;;;4.20;3.78;;;;;;;;;;5032195;28;20486;-69
2023/08/16 09:58:30;;;;;;;211.50;193.60;;;;;;;;;;5018986;28;20615;-68
2023/08/16 10:00:58;;;;;;;77.93;71.07;;;;;;;;;;5029098;28;20438;-65
2023/08/16 10:03:27;;;;;;;5.13;3.70;;;;;;;;;;5032157;28;20483;-69
2023/08/16 10:05:54;;;;;;;4.80;4.00;;;;;;;;;;5026306;28;20440;-65
2023/08/16 10:08:23;;;;;;;74.43;68.80;;;;;;;;;;5028328;28;20428;-66
2023/08/16 10:10:53;;;;;;;48.33;44.75;;;;;;;;;;5026415;28;20523;-68
2023/08/16 10:13:22;;;;;;;4.68;4.38;;;;;;;;;;5026810;28;20437;-66
2023/08/16 10:15:50;;;;;;;279.08;254.18;;;;;;;;;;5030175;28;20447;-66
2023/08/16 10:18:19;;;;;;;223.53;205.97;;;;;;;;;;5026565;28;20464;-65
2023/08/16 10:20:47;;;;;;;57.13;52.72;;;;;;;;;;5030423;28;20979;-66
2023/08/16 10:23:15;;;;;;;404.55;370.05;;;;;;;;;;5026835;28;21097;-66
2023/08/16 10:25:47;;;;;;;127.60;117.80;;;;;;;;;;5029620;28;20432;-68
2023/08/16 10:28:19;;;;;;;24.53;22.80;;;;;;;;;;5025044;28;20528;-65
2023/08/16 10:30:48;;;;;;;22.10;20.33;;;;;;;;;;5045988;28;20429;-67
2023/08/16 10:33:38;;;;;;;6.80;6.30;;;;;;;;;;5025766;28;20413;-67
2023/08/16 10:36:06;;;;;;;6.68;5.97;;;;;;;;;;5030496;28;20447;-70
2023/08/16 10:38:44;;;;;;;5.97;5.32;;;;;;;;;;5030886;28;20436;-68
2023/08/16 10:41:15;;;;;;;4.38;3.15;;;;;;;;;;5029698;28;20430;-70
2023/08/16 10:43:47;;;;;;;4.63;3.67;;;;;;;;;;5024740;28;20929;-67
2023/08/16 10:46:30;;;;;;;4.03;3.63;;;;;;;;;;5029735;28;20463;-70
2023/08/16 10:48:59;;;;;;;7.75;7.22;;;;;;;;;;5028135;28;20444;-67
2023/08/16 10:51:28;;;;;;;34.10;31.50;;;;;;;;;;5030338;28;20496;-67
2023/08/16 10:53:56;;;;;;;35.67;33.05;;;;;;;;;;5029916;28;20577;-69
2023/08/16 10:56:24;;;;;;;4.07;3.67;;;;;;;;;;5026537;28;20523;-68
2023/08/16 10:58:52;;;;;;;3.20;3.00;;;;;;;;;;5028459;28;20557;-69
2023/08/16 11:01:20;;;;;;;3.90;3.60;;;;;;;;;;5027561;28;20582;-70
2023/08/16 11:03:49;;;;;;;4.05;3.60;;;;;;;;;;5023869;28;20433;-72
2023/08/16 11:06:19;;;;;;;3.42;3.13;;;;;;;;;;5025928;28;20434;-73
2023/08/16 11:08:47;;;;;;;3.85;3.53;;;;;;;;;;5025373;28;20454;-72
2023/08/16 11:11:14;;;;;;;3.13;2.92;;;;;;;;;;5026693;28;20433;-72
2023/08/16 11:13:42;;;;;;;3.30;3.10;;;;;;;;;;5025992;28;21095;-72
2023/08/16 11:16:11;;;;;;;3.80;3.53;;;;;;;;;;5028445;28;20429;-72
2023/08/16 11:18:41;;;;;;;3.45;3.15;;;;;;;;;;5028234;28;20443;-71
2023/08/16 11:21:13;;;;;;;3.50;3.30;;;;;;;;;;5023665;28;20531;-72
2023/08/16 11:23:42;;;;;;;3.22;3.03;;;;;;;;;;5026243;28;20490;-72
2023/08/16 11:26:10;;;;;;;4.33;3.43;;;;;;;;;;5025658;28;20892;-71
2023/08/16 11:28:40;;;;;;;3.80;3.50;;;;;;;;;;5025553;28;20578;-72
2023/08/16 11:31:08;;;;;;;4.22;3.33;;;;;;;;;;5027507;28;20499;-72
2023/08/16 11:33:37;;;;;;;3.55;3.25;;;;;;;;;;5027420;28;20437;-73
2023/08/16 11:36:06;;;;;;;3.85;3.45;;;;;;;;;;5031971;28;20435;-73
2023/08/16 11:38:38;;;;;;;3.37;3.17;;;;;;;;;;5026458;28;20445;-72
2023/08/16 11:41:06;;;;;;;3.95;3.50;;;;;;;;;;5030957;28;20447;-72
2023/08/16 11:43:36;;;;;;;3.80;3.47;;;;;;;;;;5029217;28;20462;-67
2023/08/16 11:46:05;;;;;;;4.97;3.40;;;;;;;;;;5031868;28;20450;-72
2023/08/16 11:48:38;;;;;;;3.58;3.20;;;;;;;;;;5032285;28;20964;-72
2023/08/16 11:51:05;;;;;;;3.60;3.20;;;;;;;;;;5029571;28;20515;-72
2023/08/16 11:53:35;;;;;;;3.30;3.10;;;;;;;;;;5028678;28;20516;-74
2023/08/16 11:56:12;;;;;;;3.45;3.15;;;;;;;;;;5027316;28;21020;-74
2023/08/16 11:58:46;;;;;;;3.78;3.47;;;;;;;;;;5029179;28;20927;-76
2023/08/16 12:01:14;;;;;;;3.42;3.17;;;;;;;;;;5029863;28;20441;-74
2023/08/16 12:03:46;;;;;;;3.20;2.90;;;;;;;;;;5029932;28;20437;-72
2023/08/16 12:06:14;;;;;;;3.20;3.00;;;;;;;;;;5018281;28;20909;-74
2023/08/16 12:08:48;;;;;;;3.72;3.30;;;;;;;;;;5027984;28;20426;-72
2023/08/16 12:11:26;;;;;;;3.20;2.90;;;;;;;;;;5028909;28;20539;-73
2023/08/16 12:13:53;;;;;;;2.97;2.53;;;;;;;;;;5028525;28;20562;-72
2023/08/16 12:16:20;;;;;;;3.10;2.78;;;;;;;;;;5034041;28;20495;-72
2023/08/16 12:18:49;;;;;;;3.08;2.88;;;;;;;;;;5030746;28;20436;-71
2023/08/16 12:21:17;;;;;;;3.20;2.90;;;;;;;;;;5031967;28;20430;-73
2023/08/16 12:23:46;;;;;;;4.03;3.17;;;;;;;;;;5047049;28;20433;-72
2023/08/16 12:26:16;;;;;;;3.70;3.40;;;;;;;;;;5034698;28;20821;-71
2023/08/16 12:28:43;;;;;;;3.60;3.10;;;;;;;;;;5031734;28;21183;-72
2023/08/16 12:31:11;;;;;;;3.37;2.93;;;;;;;;;;5030579;28;20429;-71
2023/08/16 12:33:43;;;;;;;3.42;3.13;;;;;;;;;;5033511;28;20429;-73
2023/08/16 12:36:10;;;;;;;6.00;3.20;;;;;;;;;;5032258;28;20463;-72
2023/08/16 12:38:39;;;;;;;2.65;2.55;;;;;;;;;;5028524;28;20525;-73
2023/08/16 12:41:07;;;;;;;6.70;3.28;;;;;;;;;;5032737;28;21172;-73
2023/08/16 12:43:34;;;;;;;2.97;2.83;;;;;;;;;;5035101;28;20423;-72
2023/08/16 12:46:07;;;;;;;3.07;2.70;;;;;;;;;;5030553;28;20941;-72
2023/08/16 12:48:35;;;;;;;3.17;2.88;;;;;;;;;;5028679;28;20596;-73
2023/08/16 12:51:06;;;;;;;2.88;2.67;;;;;;;;;;5032292;28;20897;-72
2023/08/16 12:53:43;;;;;;;2.92;2.72;;;;;;;;;;5036684;28;20442;-72
2023/08/16 12:56:11;;;;;;;3.40;3.00;;;;;;;;;;5031128;28;20451;-73
2023/08/16 12:58:41;;;;;;;3.20;2.90;;;;;;;;;;5030054;28;20436;-74
2023/08/16 13:01:11;;;;;;;3.60;3.17;;;;;;;;;;5028923;28;20460;-73
2023/08/16 13:03:45;;;;;;;3.25;3.05;;;;;;;;;;5032533;28;20444;-73
2023/08/16 13:06:16;;;;;;;3.40;3.10;;;;;;;;;;5031033;28;20469;-72
2023/08/16 13:08:57;;;;;;;4.70;3.28;;;;;;;;;;5026314;28;20435;-73
2023/08/16 13:11:30;;;;;;;3.30;3.10;;;;;;;;;;5030959;28;21425;-72
2023/08/16 13:14:05;;;;;;;5.10;3.38;;;;;;;;;;5033692;28;20445;-74
2023/08/16 13:16:33;;;;;;;5.03;3.15;;;;;;;;;;5031767;28;20432;-75
2023/08/16 13:19:11;;;;;;;3.08;2.88;;;;;;;;;;5028361;28;20464;-74
2023/08/16 13:21:52;;;;;;;3.10;2.80;;;;;;;;;;5032607;28;20540;-74
2023/08/16 13:24:21;;;;;;;3.80;2.92;;;;;;;;;;5030085;28;20431;-75
2023/08/16 13:27:05;;;;;;;3.38;2.75;;;;;;;;;;5031455;28;20444;-73
2023/08/16 13:29:44;;;;;;;2.92;2.72;;;;;;;;;;5034150;28;20429;-74
2023/08/16 13:32:17;;;;;;;13.13;12.37;;;;;;;;;;5027067;28;20540;-76
2023/08/16 13:34:47;;;;;;;3.03;2.83;;;;;;;;;;5035666;28;20429;-76
2023/08/16 13:37:17;;;;;;;29.13;27.23;;;;;;;;;;5034197;28;20519;-76
2023/08/16 13:39:47;;;;;;;3.05;2.85;;;;;;;;;;5036108;28;20472;-75
2023/08/16 13:42:28;;;;;;;3.07;2.60;;;;;;;;;;5031988;28;20441;-75
2023/08/16 13:44:58;;;;;;;3.20;3.00;;;;;;;;;;5031442;28;20431;-74
2023/08/16 13:47:28;;;;;;;3.07;2.90;;;;;;;;;;5035976;28;20443;-76
2023/08/16 13:49:56;;;;;;;3.10;2.90;;;;;;;;;;5030009;28;20436;-74
2023/08/16 13:52:23;;;;;;;3.60;3.28;;;;;;;;;;5030850;28;20437;-74
2023/08/16 13:54:51;;;;;;;3.40;3.10;;;;;;;;;;5028684;28;20521;-74
2023/08/16 13:57:18;;;;;;;2.97;2.60;;;;;;;;;;5030632;28;20521;-73
2023/08/16 13:59:45;;;;;;;2.77;2.57;;;;;;;;;;5034158;28;20464;-74
2023/08/16 14:02:12;;;;;;;2.95;2.65;;;;;;;;;;5030974;28;20531;-75
2023/08/16 14:04:41;;;;;;;2.65;2.53;;;;;;;;;;5035726;28;20436;-75
2023/08/16 14:07:09;;;;;;;3.17;2.97;;;;;;;;;;5034107;28;20443;-75
2023/08/16 14:09:36;;;;;;;2.63;2.53;;;;;;;;;;5028400;28;20429;-75
2023/08/16 14:12:05;;;;;;;2.90;2.70;;;;;;;;;;5033764;28;20429;-74
2023/08/16 14:14:32;;;;;;;2.70;2.50;;;;;;;;;;5033613;28;20433;-75
2023/08/16 14:17:00;;;;;;;3.83;2.63;;;;;;;;;;5033553;28;20516;-74
2023/08/16 14:19:27;;;;;;;2.90;2.63;;;;;;;;;;5028062;28;20429;-75
2023/08/16 14:21:55;;;;;;;3.05;2.67;;;;;;;;;;5034761;28;20438;-75
2023/08/16 14:24:25;;;;;;;3.00;2.80;;;;;;;;;;5045911;28;20433;-74
2023/08/16 14:26:52;;;;;;;5.00;2.70;;;;;;;;;;5039223;28;20441;-73
2023/08/16 14:29:19;;;;;;;2.92;2.72;;;;;;;;;;5033332;28;20437;-74
2023/08/16 14:31:46;;;;;;;2.70;2.58;;;;;;;;;;5034335;28;20466;-74
2023/08/16 14:34:14;;;;;;;2.50;2.40;;;;;;;;;;5035764;28;20528;-74
2023/08/16 14:36:44;;;;;;;3.45;2.60;;;;;;;;;;5035115;28;20446;-74
2023/08/16 14:39:11;;;;;;;3.05;2.58;;;;;;;;;;5033594;28;20436;-73